createdAt,value
2023-02-23T00:00:51.896Z,21.67
2023-02-23T00:02:53.299Z,21.70
2023-02-23T00:04:54.661Z,21.74
2023-02-23T00:06:55.980Z,21.77
2023-02-23T00:08:58.185Z,21.79
2023-02-23T00:11:00.367Z,21.75
2023-02-23T00:13:01.708Z,21.78
2023-02-23T00:15:03.069Z,21.78
2023-02-23T00:17:04.464Z,21.76
2023-02-23T00:19:08.199Z,21.73
2023-02-23T00:21:09.651Z,21.72
2023-02-23T00:23:10.989Z,21.68
2023-02-23T00:25:12.279Z,21.66
2023-02-23T00:27:18.251Z,21.63
2023-02-23T00:29:20.726Z,21.62
2023-02-23T00:31:25.547Z,21.66
2023-02-23T00:33:26.859Z,21.68
2023-02-23T00:35:28.191Z,21.67
2023-02-23T00:37:29.491Z,21.67
2023-02-23T00:39:30.789Z,21.65
2023-02-23T00:41:32.086Z,21.64
2023-02-23T00:43:33.382Z,21.62
2023-02-23T00:45:36.129Z,21.62
2023-02-23T00:47:37.540Z,21.65
2023-02-23T00:49:38.836Z,21.64
2023-02-23T00:51:40.126Z,21.63
2023-02-23T00:53:41.434Z,21.63
2023-02-23T00:55:42.779Z,21.64
2023-02-23T00:57:44.066Z,21.62
2023-02-23T00:59:45.372Z,21.61
2023-02-23T01:01:46.737Z,21.64
2023-02-23T01:03:48.120Z,21.63
2023-02-23T01:05:52.304Z,21.60
2023-02-23T01:07:53.605Z,21.60
2023-02-23T01:09:54.935Z,21.59
2023-02-23T01:11:56.636Z,21.61
2023-02-23T01:13:58.083Z,21.61
2023-02-23T01:15:59.434Z,21.63
2023-02-23T01:18:00.815Z,21.67
2023-02-23T01:20:02.103Z,21.69
2023-02-23T01:22:03.435Z,21.70
2023-02-23T01:24:04.747Z,21.70
2023-02-23T01:26:06.233Z,21.70
2023-02-23T01:28:09.016Z,21.72
2023-02-23T01:30:10.359Z,21.73
2023-02-23T01:32:11.796Z,21.76
2023-02-23T01:34:13.226Z,21.75
2023-02-23T01:36:14.597Z,21.75
2023-02-23T01:38:15.892Z,21.74
2023-02-23T01:40:26.620Z,20.88
2023-02-23T01:42:27.960Z,21.75
2023-02-23T01:44:29.334Z,21.75
2023-02-23T01:46:30.669Z,21.74
2023-02-23T01:48:34.233Z,21.73
2023-02-23T01:50:36.086Z,21.76
2023-02-23T01:52:37.684Z,21.76
2023-02-23T01:54:39.036Z,21.75
2023-02-23T01:56:43.409Z,21.73
2023-02-23T01:58:44.762Z,21.71
2023-02-23T02:00:47.558Z,21.69
2023-02-23T02:02:49.022Z,21.70
2023-02-23T02:04:52.378Z,20.82
2023-02-23T02:06:55.397Z,21.72
2023-02-23T02:08:56.851Z,21.72
2023-02-23T02:10:58.140Z,21.73
2023-02-23T02:12:59.471Z,21.71
2023-02-23T02:15:00.786Z,21.70
2023-02-23T02:17:04.880Z,21.68
2023-02-23T02:19:06.173Z,21.68
2023-02-23T02:21:07.504Z,21.68
2023-02-23T02:23:09.746Z,21.65
2023-02-23T02:25:12.586Z,21.62
2023-02-23T02:27:13.910Z,21.60
2023-02-23T02:29:15.207Z,21.57
2023-02-23T02:31:16.749Z,21.55
2023-02-23T02:33:19.189Z,21.59
2023-02-23T02:35:20.550Z,21.62
2023-02-23T02:37:21.895Z,21.63
2023-02-23T02:39:24.017Z,21.62
2023-02-23T02:41:25.365Z,21.60
2023-02-23T02:43:26.675Z,21.62
2023-02-23T02:45:28.015Z,21.64
2023-02-23T02:47:29.358Z,21.65
2023-02-23T02:49:30.714Z,21.63
2023-02-23T02:51:32.073Z,21.67
2023-02-23T02:53:33.913Z,21.70
2023-02-23T02:55:37.466Z,21.75
2023-02-23T02:57:38.760Z,21.80
2023-02-23T02:59:58.707Z,21.83
2023-02-23T03:02:18.590Z,21.81
2023-02-23T03:04:38.551Z,21.84
2023-02-23T03:06:58.484Z,21.80
2023-02-23T03:09:18.411Z,21.79
2023-02-23T03:11:38.248Z,21.81
2023-02-23T03:13:58.143Z,21.83
2023-02-23T03:16:18.180Z,21.81
2023-02-23T03:18:38.388Z,21.81
2023-02-23T03:20:58.301Z,21.82
2023-02-23T03:23:18.335Z,21.84
2023-02-23T03:25:38.249Z,21.79
2023-02-23T03:27:58.055Z,21.73
2023-02-23T03:30:18.038Z,21.71
2023-02-23T03:32:37.939Z,21.70
2023-02-23T03:34:58.073Z,21.68
2023-02-23T03:37:17.805Z,21.63
2023-02-23T03:39:37.664Z,21.60
2023-02-23T03:41:57.464Z,21.69
2023-02-23T03:44:17.341Z,21.39
2023-02-23T03:46:37.131Z,21.10
2023-02-23T03:48:56.943Z,20.89
2023-02-23T03:51:17.195Z,20.76
2023-02-23T03:53:37.238Z,20.89
2023-02-23T03:55:57.528Z,20.96
2023-02-23T03:58:17.929Z,21.11
2023-02-23T04:00:38.765Z,21.12
2023-02-23T04:02:58.814Z,21.24
2023-02-23T04:05:18.694Z,21.31
2023-02-23T04:07:38.668Z,21.32
2023-02-23T04:09:58.492Z,21.39
2023-02-23T04:12:18.447Z,21.48
2023-02-23T04:14:19.693Z,21.56
2023-02-23T04:16:20.988Z,21.63
2023-02-23T04:18:22.366Z,21.68
2023-02-23T04:20:24.390Z,21.71
2023-02-23T04:22:25.725Z,21.75
2023-02-23T04:24:27.031Z,21.75
2023-02-23T04:26:28.365Z,21.76
2023-02-23T04:28:29.712Z,21.76
2023-02-23T04:30:31.087Z,21.72
2023-02-23T04:32:32.504Z,21.71
2023-02-23T04:34:33.892Z,21.69
2023-02-23T04:36:35.223Z,21.64
2023-02-23T04:38:36.551Z,21.59
2023-02-23T04:40:37.959Z,21.55
2023-02-23T04:42:39.291Z,21.51
2023-02-23T04:44:40.637Z,21.50
2023-02-23T04:46:41.936Z,21.47
2023-02-23T04:48:43.233Z,21.45
2023-02-23T04:50:44.531Z,21.40
2023-02-23T04:52:45.871Z,21.37
2023-02-23T04:54:47.168Z,21.36
2023-02-23T04:56:48.503Z,21.34
2023-02-23T04:58:50.213Z,21.32
2023-02-23T05:00:51.544Z,21.31
2023-02-23T05:02:52.893Z,21.29
2023-02-23T05:04:54.250Z,21.25
2023-02-23T05:06:55.586Z,21.19
2023-02-23T05:08:56.882Z,21.14
2023-02-23T05:10:58.204Z,21.09
2023-02-23T05:13:02.275Z,21.03
2023-02-23T05:15:03.592Z,20.98
2023-02-23T05:17:05.643Z,20.95
2023-02-23T05:19:08.066Z,20.92
2023-02-23T05:21:09.496Z,20.91
2023-02-23T05:23:10.789Z,20.90
2023-02-23T05:25:12.118Z,20.92
2023-02-23T05:27:14.083Z,20.93
2023-02-23T05:29:15.380Z,20.94
2023-02-23T05:31:17.499Z,20.99
2023-02-23T05:33:19.912Z,21.02
2023-02-23T05:35:21.209Z,21.04
2023-02-23T05:37:22.588Z,21.11
2023-02-23T05:39:23.955Z,21.16
2023-02-23T05:41:25.391Z,21.22
2023-02-23T05:43:26.883Z,21.31
2023-02-23T05:45:28.243Z,21.37
2023-02-23T05:47:29.555Z,21.42
2023-02-23T05:49:30.889Z,21.46
2023-02-23T05:51:34.968Z,21.51
2023-02-23T05:53:36.273Z,21.54
2023-02-23T05:55:37.758Z,21.54
2023-02-23T05:57:39.055Z,21.58
2023-02-23T05:59:40.342Z,21.57
2023-02-23T06:01:41.751Z,21.55
2023-02-23T06:03:43.079Z,21.53
2023-02-23T06:05:44.383Z,21.51
2023-02-23T06:07:45.722Z,21.48
2023-02-23T06:09:47.038Z,21.43
2023-02-23T06:11:48.387Z,21.41
2023-02-23T06:13:49.906Z,21.40
2023-02-23T06:15:51.289Z,21.37
2023-02-23T06:17:53.623Z,21.33
2023-02-23T06:19:55.189Z,21.31
2023-02-23T06:21:56.484Z,21.29
2023-02-23T06:24:00.639Z,21.27
2023-02-23T06:26:02.214Z,21.25
2023-02-23T06:28:03.523Z,21.23
2023-02-23T06:30:04.815Z,21.20
2023-02-23T06:32:06.210Z,21.21
2023-02-23T06:34:07.586Z,21.20
2023-02-23T06:36:10.327Z,21.20
2023-02-23T06:38:11.652Z,21.18
2023-02-23T06:40:12.943Z,21.17
2023-02-23T06:42:15.400Z,21.17
2023-02-23T06:44:16.739Z,21.16
2023-02-23T06:46:18.099Z,21.15
2023-02-23T06:48:19.439Z,21.14
2023-02-23T06:50:21.377Z,21.14
2023-02-23T06:52:25.014Z,21.12
2023-02-23T06:54:26.520Z,21.11
2023-02-23T06:56:27.882Z,21.11
2023-02-23T06:58:29.208Z,21.13
2023-02-23T07:00:30.659Z,21.13
2023-02-23T07:02:32.001Z,21.14
2023-02-23T07:04:33.322Z,21.17
2023-02-23T07:06:34.645Z,21.18
2023-02-23T07:08:35.976Z,21.21
2023-02-23T07:10:37.322Z,21.25
2023-02-23T07:12:38.627Z,21.30
2023-02-23T07:14:39.992Z,21.35
2023-02-23T07:16:41.574Z,21.41
2023-02-23T07:18:42.882Z,21.46
2023-02-23T07:20:44.881Z,21.50
2023-02-23T07:22:46.178Z,21.50
2023-02-23T07:24:48.369Z,21.53
2023-02-23T07:26:49.911Z,21.53
2023-02-23T07:28:53.356Z,21.54
2023-02-23T07:30:55.505Z,21.53
2023-02-23T07:32:56.816Z,21.49
2023-02-23T07:34:58.211Z,21.46
2023-02-23T07:36:59.513Z,21.44
2023-02-23T07:39:00.803Z,21.40
2023-02-23T07:41:02.168Z,21.39
2023-02-23T07:43:03.464Z,21.35
2023-02-23T07:45:04.775Z,21.33
2023-02-23T07:47:06.303Z,21.29
2023-02-23T07:49:07.590Z,21.26
2023-02-23T07:51:10.070Z,21.25
2023-02-23T07:53:11.483Z,21.24
2023-02-23T07:55:13.025Z,21.21
2023-02-23T07:57:14.323Z,21.20
2023-02-23T07:59:16.014Z,21.19
2023-02-23T08:01:17.816Z,21.17
2023-02-23T08:03:19.512Z,21.17
2023-02-23T08:05:20.834Z,21.15
2023-02-23T08:07:22.126Z,21.15
2023-02-23T08:09:23.424Z,21.13
2023-02-23T08:11:24.813Z,21.12
2023-02-23T08:13:26.107Z,21.11
2023-02-23T08:15:27.660Z,21.10
2023-02-23T08:17:30.372Z,21.11
2023-02-23T08:19:31.726Z,21.11
2023-02-23T08:21:33.030Z,21.12
2023-02-23T08:23:34.322Z,21.11
2023-02-23T08:25:35.660Z,21.14
2023-02-23T08:27:37.036Z,21.17
2023-02-23T08:29:38.878Z,21.19
2023-02-23T08:31:40.409Z,21.27
2023-02-23T08:33:41.809Z,21.32
2023-02-23T08:35:43.205Z,21.38
2023-02-23T08:37:45.461Z,21.46
2023-02-23T08:39:46.767Z,21.51
2023-02-23T08:41:48.110Z,21.58
2023-02-23T08:43:49.420Z,21.61
2023-02-23T08:45:50.779Z,21.63
2023-02-23T08:47:52.095Z,21.68
2023-02-23T08:49:56.092Z,21.69
2023-02-23T08:51:57.432Z,21.69
2023-02-23T08:53:58.775Z,21.68
2023-02-23T08:56:00.681Z,21.68
2023-02-23T08:58:01.984Z,21.66
2023-02-23T09:00:03.371Z,21.65
2023-02-23T09:02:04.878Z,21.59
2023-02-23T09:04:12.451Z,21.57
2023-02-23T09:06:13.812Z,21.52
2023-02-23T09:08:15.112Z,21.49
2023-02-23T09:10:16.439Z,21.48
2023-02-23T09:12:17.752Z,21.42
2023-02-23T09:14:19.123Z,21.41
2023-02-23T09:16:20.473Z,21.40
2023-02-23T09:18:24.083Z,21.38
2023-02-23T09:20:26.994Z,21.35
2023-02-23T09:22:28.342Z,21.34
2023-02-23T09:24:29.883Z,21.32
2023-02-23T09:26:32.500Z,21.31
2023-02-23T09:28:34.138Z,21.29
2023-02-23T09:30:35.475Z,21.29
2023-02-23T09:32:37.485Z,21.28
2023-02-23T09:34:38.834Z,21.27
2023-02-23T09:36:40.176Z,21.27
2023-02-23T09:38:41.475Z,21.28
2023-02-23T09:40:42.759Z,21.27
2023-02-23T09:42:44.051Z,21.26
2023-02-23T09:44:45.535Z,21.26
2023-02-23T09:46:47.013Z,21.27
2023-02-23T09:48:48.410Z,21.28
2023-02-23T09:50:49.833Z,21.29
2023-02-23T09:52:51.142Z,21.29
2023-02-23T09:54:52.448Z,21.32
2023-02-23T09:56:56.286Z,21.34
2023-02-23T09:58:57.646Z,21.38
2023-02-23T10:00:58.988Z,21.44
2023-02-23T10:03:01.019Z,21.47
2023-02-23T10:05:02.834Z,21.51
2023-02-23T10:07:04.191Z,21.55
2023-02-23T10:09:05.532Z,21.58
2023-02-23T10:11:07.632Z,21.60
2023-02-23T10:13:09.518Z,21.62
2023-02-23T10:15:11.287Z,21.63
2023-02-23T10:17:14.577Z,21.64
2023-02-23T10:19:15.928Z,21.66
2023-02-23T10:21:17.421Z,21.68
2023-02-23T10:23:18.805Z,21.69
2023-02-23T10:25:20.122Z,21.69
2023-02-23T10:27:21.451Z,21.65
2023-02-23T10:29:22.785Z,21.64
2023-02-23T10:31:24.254Z,21.62
2023-02-23T10:33:25.623Z,21.57
2023-02-23T10:35:26.969Z,21.57
2023-02-23T10:37:28.552Z,21.54
2023-02-23T10:39:30.040Z,21.52
2023-02-23T10:41:31.699Z,21.50
2023-02-23T10:43:33.032Z,21.46
2023-02-23T10:45:34.335Z,21.43
2023-02-23T10:47:35.707Z,21.39
2023-02-23T10:49:39.881Z,21.40
2023-02-23T10:51:41.444Z,21.36
2023-02-23T10:53:43.562Z,21.36
2023-02-23T10:55:45.310Z,21.36
2023-02-23T10:57:47.233Z,21.34
2023-02-23T10:59:48.560Z,21.33
2023-02-23T11:02:01.470Z,21.32
2023-02-23T11:04:06.203Z,21.32
2023-02-23T11:06:07.735Z,21.29
2023-02-23T11:08:09.174Z,21.31
2023-02-23T11:10:10.484Z,21.31
2023-02-23T11:12:11.798Z,21.31
2023-02-23T11:14:13.117Z,21.32
2023-02-23T11:16:14.504Z,21.33
2023-02-23T11:18:16.054Z,21.34
2023-02-23T11:20:17.434Z,21.33
2023-02-23T11:22:22.281Z,21.36
2023-02-23T11:24:23.676Z,21.40
2023-02-23T11:26:25.029Z,21.41
2023-02-23T11:28:27.686Z,21.43
2023-02-23T11:30:29.573Z,21.46
2023-02-23T11:32:31.019Z,21.46
2023-02-23T11:34:32.430Z,21.48
2023-02-23T11:36:33.771Z,21.51
2023-02-23T11:38:35.116Z,21.50
2023-02-23T11:40:36.545Z,21.48
2023-02-23T11:42:37.869Z,21.50
2023-02-23T11:44:39.207Z,21.48
2023-02-23T11:46:42.656Z,21.50
2023-02-23T11:48:44.109Z,21.51
2023-02-23T11:50:45.455Z,21.50
2023-02-23T11:52:46.736Z,21.49
2023-02-23T11:54:48.042Z,21.46
2023-02-23T11:56:52.303Z,21.46
2023-02-23T11:58:59.775Z,21.46
2023-02-23T12:01:01.180Z,21.43
2023-02-23T12:03:02.489Z,21.44
2023-02-23T12:05:05.099Z,21.45
2023-02-23T12:07:06.435Z,21.43
2023-02-23T12:09:07.798Z,21.41
2023-02-23T12:11:09.092Z,21.39
2023-02-23T12:13:10.387Z,21.37
2023-02-23T12:15:11.720Z,21.34
2023-02-23T12:17:14.168Z,21.33
2023-02-23T12:19:15.471Z,21.30
2023-02-23T12:21:16.807Z,21.28
2023-02-23T12:23:18.196Z,21.26
2023-02-23T12:25:20.379Z,21.25
2023-02-23T12:27:22.455Z,21.24
2023-02-23T12:29:26.505Z,21.24
2023-02-23T12:31:28.377Z,21.22
2023-02-23T12:33:33.995Z,21.22
2023-02-23T12:35:35.425Z,21.20
2023-02-23T12:37:37.136Z,21.21
2023-02-23T12:39:38.463Z,21.22
2023-02-23T12:41:40.586Z,21.21
2023-02-23T12:43:41.921Z,21.24
2023-02-23T12:45:43.245Z,21.24
2023-02-23T12:47:44.568Z,21.25
2023-02-23T12:49:45.874Z,21.24
2023-02-23T12:51:47.571Z,21.25
2023-02-23T12:53:48.919Z,21.28
2023-02-23T12:55:50.232Z,21.30
2023-02-23T12:57:51.528Z,21.32
2023-02-23T12:59:53.337Z,21.35
2023-02-23T13:01:54.820Z,21.36
2023-02-23T13:03:56.189Z,21.38
2023-02-23T13:05:57.723Z,21.40
2023-02-23T13:08:04.718Z,21.41
2023-02-23T13:10:13.015Z,21.46
2023-02-23T13:12:14.381Z,21.48
2023-02-23T13:14:15.746Z,21.50
2023-02-23T13:16:17.161Z,21.54
2023-02-23T13:18:18.470Z,21.55
2023-02-23T13:20:19.807Z,21.57
2023-02-23T13:22:21.116Z,21.58
2023-02-23T13:24:22.468Z,21.59
2023-02-23T13:26:24.833Z,21.58
2023-02-23T13:28:28.263Z,21.54
2023-02-23T13:30:32.421Z,21.49
2023-02-23T13:32:33.852Z,21.43
2023-02-23T13:34:35.276Z,21.41
2023-02-23T13:36:36.593Z,21.39
2023-02-23T13:38:37.918Z,21.39
2023-02-23T13:40:39.325Z,21.35
2023-02-23T13:42:40.863Z,21.34
2023-02-23T13:44:42.217Z,21.33
2023-02-23T13:46:43.803Z,21.32
2023-02-23T13:48:56.612Z,21.30
2023-02-23T13:50:59.412Z,21.29
2023-02-23T13:53:01.181Z,21.10
2023-02-23T13:55:03.989Z,21.24
2023-02-23T13:57:08.544Z,21.20
2023-02-23T13:59:09.875Z,21.19
2023-02-23T14:01:11.270Z,21.19
2023-02-23T14:03:12.775Z,20.90
2023-02-23T14:05:14.159Z,20.73
2023-02-23T14:07:16.628Z,20.65
2023-02-23T14:09:17.924Z,20.52
2023-02-23T14:11:19.564Z,20.05
2023-02-23T14:13:21.178Z,20.10
2023-02-23T14:15:22.481Z,21.06
2023-02-23T14:17:23.786Z,21.59
2023-02-23T14:19:25.127Z,22.06
2023-02-23T14:21:26.470Z,22.80
2023-02-23T14:23:28.001Z,22.78
2023-02-23T14:25:29.316Z,22.64
2023-02-23T14:29:43.873Z,22.47
2023-02-23T14:31:45.343Z,22.59
2023-02-23T14:33:48.446Z,22.69
2023-02-23T14:35:49.791Z,22.67
2023-02-23T14:37:51.124Z,22.72
2023-02-23T14:39:52.433Z,22.91
2023-02-23T14:41:53.775Z,22.53
2023-02-23T14:43:55.137Z,21.55
2023-02-23T14:45:56.436Z,22.43
2023-02-23T14:47:59.894Z,22.50
2023-02-23T14:50:02.230Z,22.51
2023-02-23T14:52:03.696Z,22.52
2023-02-23T14:54:05.060Z,22.55
2023-02-23T14:56:06.351Z,22.60
2023-02-23T14:58:07.686Z,22.62
2023-02-23T15:00:08.999Z,22.38
2023-02-23T15:02:10.452Z,22.11
2023-02-23T15:04:11.981Z,22.07
2023-02-23T15:06:13.372Z,22.06
2023-02-23T15:08:15.353Z,21.18
2023-02-23T15:10:16.668Z,22.04
2023-02-23T15:12:18.060Z,22.02
2023-02-23T15:14:27.649Z,22.02
2023-02-23T15:16:29.481Z,21.99
2023-02-23T15:18:30.797Z,21.97
2023-02-23T15:20:33.679Z,21.98
2023-02-23T15:22:35.149Z,21.94
2023-02-23T15:24:36.457Z,21.91
2023-02-23T15:26:37.804Z,21.89
2023-02-23T15:28:39.107Z,21.87
2023-02-23T15:30:40.397Z,21.83
2023-02-23T15:32:42.539Z,21.80
2023-02-23T15:34:43.881Z,21.80
2023-02-23T15:36:47.100Z,21.80
2023-02-23T15:38:48.404Z,21.79
2023-02-23T15:40:49.703Z,21.77
2023-02-23T15:42:51.043Z,21.77
2023-02-23T15:44:52.372Z,21.76
2023-02-23T15:46:53.740Z,21.76
2023-02-23T15:48:55.079Z,21.78
2023-02-23T15:50:57.658Z,21.78
2023-02-23T15:52:59.139Z,21.69
2023-02-23T15:55:01.619Z,21.62
2023-02-23T15:57:03.051Z,21.53
2023-02-23T15:59:07.305Z,21.49
2023-02-23T16:01:08.746Z,21.44
2023-02-23T16:03:10.156Z,21.40
2023-02-23T16:05:14.445Z,21.38
2023-02-23T16:07:15.791Z,21.36
2023-02-23T16:09:21.795Z,21.33
2023-02-23T16:11:23.476Z,21.31
2023-02-23T16:13:24.912Z,21.29
2023-02-23T16:15:26.276Z,21.28
2023-02-23T16:17:27.614Z,21.26
2023-02-23T16:19:28.933Z,21.27
2023-02-23T16:21:33.329Z,21.26
2023-02-23T16:23:36.178Z,21.19
2023-02-23T16:25:37.512Z,21.22
2023-02-23T16:27:38.928Z,21.17
2023-02-23T16:29:46.335Z,21.21
2023-02-23T16:31:47.803Z,21.26
2023-02-23T16:33:49.340Z,21.29
2023-02-23T16:35:50.723Z,21.30
2023-02-23T16:37:52.016Z,21.32
2023-02-23T16:39:53.303Z,21.32
2023-02-23T16:41:54.631Z,21.31
2023-02-23T16:43:56.148Z,21.33
2023-02-23T16:45:57.484Z,21.34
2023-02-23T16:48:11.526Z,21.33
2023-02-23T16:50:19.274Z,21.33
2023-02-23T16:52:22.454Z,21.33
2023-02-23T16:54:23.769Z,21.31
2023-02-23T16:56:25.645Z,21.31
2023-02-23T16:58:27.158Z,21.29
2023-02-23T17:00:31.647Z,21.27
2023-02-23T17:02:32.999Z,21.24
2023-02-23T17:04:34.380Z,21.21
2023-02-23T17:06:38.528Z,21.20
2023-02-23T17:08:45.910Z,21.18
2023-02-23T17:10:54.203Z,21.15
2023-02-23T17:12:55.837Z,21.14
2023-02-23T17:14:57.243Z,21.13
2023-02-23T17:17:00.866Z,21.09
2023-02-23T17:19:02.396Z,21.06
2023-02-23T17:21:03.758Z,21.05
2023-02-23T17:23:05.180Z,20.95
2023-02-23T17:25:09.279Z,21.37
2023-02-23T17:27:12.022Z,21.65
2023-02-23T17:29:13.436Z,21.82
2023-02-23T17:31:14.862Z,21.93
2023-02-23T17:33:17.352Z,22.01
2023-02-23T17:35:21.877Z,22.07
2023-02-23T17:37:23.341Z,22.12
2023-02-23T17:39:28.180Z,22.18
2023-02-23T17:41:29.767Z,22.21
2023-02-23T17:43:31.174Z,22.29
2023-02-23T17:45:32.512Z,22.30
2023-02-23T17:47:33.981Z,22.35
2023-02-23T17:49:35.324Z,22.41
2023-02-23T17:51:36.653Z,22.43
2023-02-23T17:53:37.997Z,22.48
2023-02-23T17:55:42.447Z,22.50
2023-02-23T17:59:48.100Z,22.54
2023-02-23T18:01:49.732Z,22.59
2023-02-23T18:03:51.202Z,22.59
2023-02-23T18:05:55.680Z,22.65
2023-02-23T18:07:56.977Z,22.68
2023-02-23T18:09:58.435Z,22.71
2023-02-23T18:11:59.812Z,22.70
2023-02-23T18:14:03.048Z,23.10
2023-02-23T18:16:05.982Z,23.07
2023-02-23T18:18:07.301Z,23.10
2023-02-23T18:20:14.996Z,23.02
2023-02-23T18:22:16.389Z,23.33
2023-02-23T18:24:17.931Z,23.00
2023-02-23T18:26:19.275Z,23.48
2023-02-23T18:28:20.618Z,23.24
2023-02-23T18:30:24.849Z,23.09
2023-02-23T18:32:26.332Z,23.05
2023-02-23T18:34:28.648Z,23.06
2023-02-23T18:36:30.032Z,23.10
2023-02-23T18:38:31.792Z,23.08
2023-02-23T18:40:33.227Z,22.99
2023-02-23T18:42:34.618Z,22.46
2023-02-23T18:44:36.038Z,22.18
2023-02-23T18:46:37.375Z,22.01
2023-02-23T18:48:38.723Z,22.40
2023-02-23T18:50:40.160Z,22.64
2023-02-23T18:52:42.144Z,21.59
2023-02-23T18:54:43.508Z,22.12
2023-02-23T18:56:45.094Z,22.52
2023-02-23T18:58:46.435Z,22.77
2023-02-23T19:00:50.815Z,22.92
2023-02-23T19:02:52.183Z,22.89
2023-02-23T19:04:53.566Z,22.95
2023-02-23T19:06:54.953Z,23.13
2023-02-23T19:08:57.224Z,23.33
2023-02-23T19:11:02.235Z,23.63
2023-02-23T19:13:03.695Z,23.40
2023-02-23T19:15:07.225Z,23.24
2023-02-23T19:17:09.092Z,23.00
2023-02-23T19:19:13.044Z,22.50
2023-02-23T19:21:14.469Z,22.61
2023-02-23T19:23:21.431Z,22.70
2023-02-23T19:25:22.751Z,22.63
2023-02-23T19:27:24.052Z,22.55
2023-02-23T19:29:28.102Z,22.55
2023-02-23T19:31:29.542Z,22.70
2023-02-23T19:33:30.998Z,23.22
2023-02-23T19:35:33.599Z,23.45
2023-02-23T19:37:34.938Z,23.39
2023-02-23T19:39:36.322Z,23.23
2023-02-23T19:41:40.788Z,23.25
2023-02-23T19:43:42.117Z,23.79
2023-02-23T19:45:46.602Z,23.59
2023-02-23T19:47:47.984Z,23.57
2023-02-23T19:49:49.374Z,23.59
2023-02-23T19:51:52.862Z,22.83
2023-02-23T19:53:54.621Z,22.60
2023-02-23T19:55:55.945Z,23.13
2023-02-23T19:57:57.242Z,23.65
2023-02-23T19:59:59.151Z,23.81
2023-02-23T20:02:00.504Z,23.61
2023-02-23T20:04:02.459Z,23.79
2023-02-23T20:06:03.819Z,23.72
2023-02-23T20:08:05.165Z,23.57
2023-02-23T20:10:08.119Z,23.76
2023-02-23T20:12:09.461Z,23.66
2023-02-23T20:14:15.219Z,23.66
2023-02-23T20:16:16.609Z,23.41
2023-02-23T20:18:20.251Z,23.01
2023-02-23T20:20:25.510Z,22.85
2023-02-23T20:22:26.837Z,23.03
2023-02-23T20:24:28.162Z,22.85
2023-02-23T20:26:34.250Z,22.78
2023-02-23T20:28:38.397Z,22.58
2023-02-23T20:30:39.784Z,22.33
2023-02-23T20:32:41.234Z,22.17
2023-02-23T20:34:45.387Z,22.06
2023-02-23T20:36:46.748Z,22.01
2023-02-23T20:38:48.122Z,21.96
2023-02-23T20:40:56.093Z,21.92
2023-02-23T20:42:57.435Z,21.93
2023-02-23T20:44:58.798Z,22.02
2023-02-23T20:47:00.773Z,22.33
2023-02-23T20:49:03.640Z,22.53
2023-02-23T20:51:08.436Z,22.83
2023-02-23T20:53:09.825Z,22.94
2023-02-23T20:55:11.137Z,22.81
2023-02-23T20:57:12.431Z,22.77
2023-02-23T20:59:23.221Z,22.77
2023-02-23T21:01:27.056Z,22.77
2023-02-23T21:03:28.457Z,22.79
2023-02-23T21:05:29.853Z,22.85
2023-02-23T21:07:31.151Z,22.89
2023-02-23T21:09:32.896Z,22.89
2023-02-23T21:11:34.228Z,22.66
2023-02-23T21:13:35.564Z,22.37
2023-02-23T21:15:36.945Z,22.60
2023-02-23T21:17:38.610Z,22.79
2023-02-23T21:19:40.072Z,23.32
2023-02-23T21:21:41.525Z,23.26
2023-02-23T21:23:45.695Z,23.49
2023-02-23T21:25:47.045Z,23.59
2023-02-23T21:27:48.361Z,23.37
2023-02-23T21:29:49.661Z,23.59
2023-02-23T21:31:51.267Z,23.63
2023-02-23T21:33:52.621Z,23.53
2023-02-23T21:35:58.678Z,23.58
2023-02-23T21:38:00.032Z,23.46
2023-02-23T21:40:01.325Z,23.90
2023-02-23T21:42:02.695Z,23.68
2023-02-23T21:44:04.055Z,22.49
2023-02-23T21:46:05.378Z,20.94
2023-02-23T21:48:09.732Z,19.31
2023-02-23T21:50:13.662Z,19.41
2023-02-23T21:52:14.999Z,20.47
2023-02-23T21:54:16.306Z,21.13
2023-02-23T21:56:17.646Z,21.43
2023-02-23T21:58:18.956Z,21.60
2023-02-23T22:00:21.022Z,21.67
2023-02-23T22:02:22.475Z,21.71
2023-02-23T22:04:23.820Z,21.78
2023-02-23T22:06:25.147Z,21.85
2023-02-23T22:08:26.443Z,21.89
2023-02-23T22:10:28.128Z,21.96
2023-02-23T22:12:32.676Z,22.00
2023-02-23T22:14:34.008Z,22.10
2023-02-23T22:16:38.123Z,22.13
2023-02-23T22:18:40.944Z,22.20
2023-02-23T22:20:51.136Z,22.24
2023-02-23T22:22:52.572Z,22.24
2023-02-23T22:24:53.902Z,22.24
2023-02-23T22:26:55.428Z,22.24
2023-02-23T22:28:56.774Z,22.24
2023-02-23T22:30:58.164Z,22.19
2023-02-23T22:32:59.546Z,22.22
2023-02-23T22:35:01.011Z,22.18
2023-02-23T22:37:02.340Z,22.15
2023-02-23T22:39:06.229Z,22.12
2023-02-23T22:41:10.571Z,22.10
2023-02-23T22:43:12.023Z,22.04
2023-02-23T22:45:13.348Z,22.05
2023-02-23T22:47:14.651Z,21.96
2023-02-23T22:49:16.054Z,21.86
2023-02-23T22:51:17.499Z,21.86
2023-02-23T22:53:18.864Z,21.83
2023-02-23T22:55:20.148Z,21.79
2023-02-23T22:57:21.457Z,21.74
2023-02-23T22:59:22.793Z,21.74
2023-02-23T23:01:26.706Z,21.73
2023-02-23T23:03:28.022Z,21.71
2023-02-23T23:05:29.394Z,21.71
2023-02-23T23:07:33.425Z,21.72
2023-02-23T23:09:36.278Z,21.68
2023-02-23T23:11:37.611Z,21.64
2023-02-23T23:13:43.227Z,21.67
2023-02-23T23:15:44.519Z,21.67
2023-02-23T23:17:48.747Z,21.68
2023-02-23T23:19:50.136Z,21.67
2023-02-23T23:21:55.035Z,21.63
2023-02-23T23:23:56.577Z,21.61
2023-02-23T23:25:57.891Z,21.61
2023-02-23T23:27:59.188Z,21.58
2023-02-23T23:30:02.934Z,21.57
2023-02-23T23:32:06.804Z,21.57
2023-02-23T23:34:09.382Z,21.55
2023-02-23T23:36:11.760Z,21.53
2023-02-23T23:38:14.420Z,21.55
2023-02-23T23:40:15.833Z,21.59
2023-02-23T23:42:17.152Z,21.60
2023-02-23T23:44:18.521Z,21.58
2023-02-23T23:46:22.857Z,21.58
2023-02-23T23:48:25.359Z,21.60
2023-02-23T23:50:27.451Z,21.62
2023-02-23T23:52:30.088Z,21.63
2023-02-23T23:54:31.383Z,21.64
2023-02-23T23:56:34.787Z,21.64
2023-02-23T23:58:36.695Z,21.67
